createdAt,value
2023-01-11T00:00:42.782Z,1
2023-01-11T00:02:26.494Z,0
2023-01-11T00:04:10.199Z,0
2023-01-11T00:05:53.892Z,1
2023-01-11T00:07:37.595Z,1
2023-01-11T00:09:21.309Z,1
2023-01-11T00:11:04.990Z,1
2023-01-11T00:12:48.712Z,1
2023-01-11T00:14:32.407Z,0
2023-01-11T00:16:16.107Z,1
2023-01-11T00:17:59.809Z,0
2023-01-11T00:19:43.505Z,0
2023-01-11T00:21:27.217Z,0
2023-01-11T00:23:10.925Z,1
2023-01-11T00:24:54.600Z,1
2023-01-11T00:26:38.329Z,0
2023-01-11T00:28:22.018Z,0
2023-01-11T00:30:05.763Z,1
2023-01-11T00:31:49.430Z,1
2023-01-11T00:33:33.108Z,0
2023-01-11T00:35:16.822Z,0
2023-01-11T00:37:00.540Z,1
2023-01-11T00:38:44.228Z,1
2023-01-11T00:40:27.974Z,0
2023-01-11T00:42:11.628Z,1
2023-01-11T00:43:55.319Z,1
2023-01-11T00:45:39.051Z,0
2023-01-11T00:47:22.747Z,0
2023-01-11T00:49:06.443Z,0
2023-01-11T00:50:50.125Z,0
2023-01-11T00:52:33.820Z,1
2023-01-11T00:54:17.530Z,0
2023-01-11T00:56:01.248Z,0
2023-01-11T00:57:44.942Z,0
2023-01-11T00:59:28.642Z,0
2023-01-11T01:01:12.332Z,0
2023-01-11T01:02:56.051Z,0
2023-01-11T01:04:39.743Z,1
2023-01-11T01:06:23.438Z,0
2023-01-11T01:08:07.144Z,1
2023-01-11T01:09:50.845Z,0
2023-01-11T01:11:34.557Z,0
2023-01-11T01:13:18.267Z,1
2023-01-11T01:15:01.944Z,1
2023-01-11T01:16:45.650Z,1
2023-01-11T01:18:29.361Z,0
2023-01-11T01:20:13.034Z,0
2023-01-11T01:21:56.747Z,1
2023-01-11T01:23:40.462Z,1
2023-01-11T01:25:24.162Z,1
2023-01-11T01:27:07.858Z,0
2023-01-11T01:28:51.565Z,1
2023-01-11T01:30:35.259Z,0
2023-01-11T01:32:18.967Z,0
2023-01-11T01:34:02.675Z,1
2023-01-11T01:35:46.396Z,1
2023-01-11T01:37:30.091Z,1
2023-01-11T01:39:13.764Z,1
2023-01-11T01:40:57.476Z,0
2023-01-11T01:42:41.208Z,1
2023-01-11T01:44:24.900Z,1
2023-01-11T01:46:08.579Z,1
2023-01-11T01:47:52.296Z,0
2023-01-11T01:49:35.992Z,0
2023-01-11T01:51:19.713Z,0
2023-01-11T01:53:03.402Z,0
2023-01-11T01:54:47.124Z,1
2023-01-11T01:56:30.830Z,0
2023-01-11T01:58:14.524Z,0
2023-01-11T01:59:58.213Z,0
2023-01-11T02:01:41.937Z,0
2023-01-11T02:03:25.690Z,0
2023-01-11T02:05:09.342Z,1
2023-01-11T02:06:53.024Z,1
2023-01-11T02:08:36.741Z,0
2023-01-11T02:10:20.440Z,0
2023-01-11T02:12:04.148Z,0
2023-01-11T02:13:47.835Z,0
2023-01-11T02:15:31.551Z,1
2023-01-11T02:17:15.243Z,0
2023-01-11T02:18:58.951Z,0
2023-01-11T02:20:42.655Z,1
2023-01-11T02:22:26.366Z,0
2023-01-11T02:24:10.065Z,1
2023-01-11T02:25:53.760Z,0
2023-01-11T02:27:37.456Z,0
2023-01-11T02:29:21.172Z,0
2023-01-11T02:31:04.862Z,0
2023-01-11T02:32:48.576Z,0
2023-01-11T02:34:32.280Z,0
2023-01-11T02:36:15.950Z,0
2023-01-11T02:37:59.684Z,0
2023-01-11T02:39:43.375Z,0
2023-01-11T02:41:27.062Z,0
2023-01-11T02:43:10.776Z,0
2023-01-11T02:44:54.488Z,1
2023-01-11T02:46:38.180Z,0
2023-01-11T02:48:21.873Z,0
2023-01-11T02:50:05.596Z,0
2023-01-11T02:51:49.286Z,1
2023-01-11T02:53:32.993Z,0
2023-01-11T02:55:16.670Z,1
2023-01-11T02:57:00.382Z,0
2023-01-11T02:58:44.088Z,0
2023-01-11T03:00:27.795Z,0
2023-01-11T03:02:11.481Z,1
2023-01-11T03:03:55.207Z,0
2023-01-11T03:05:38.890Z,0
2023-01-11T03:07:22.587Z,0
2023-01-11T03:09:06.287Z,0
2023-01-11T03:10:50.000Z,1
2023-01-11T03:12:33.700Z,0
2023-01-11T03:14:17.421Z,0
2023-01-11T03:16:01.098Z,1
2023-01-11T03:17:44.793Z,0
2023-01-11T03:19:28.520Z,1
2023-01-11T03:21:12.202Z,0
2023-01-11T03:22:55.902Z,1
2023-01-11T03:24:39.606Z,0
2023-01-11T03:26:23.319Z,0
2023-01-11T03:28:07.009Z,1
2023-01-11T03:29:50.709Z,0
2023-01-11T03:31:34.425Z,0
2023-01-11T03:33:18.113Z,0
2023-01-11T03:35:01.817Z,0
2023-01-11T03:36:45.525Z,0
2023-01-11T03:38:29.224Z,0
2023-01-11T03:40:12.920Z,0
2023-01-11T03:41:56.634Z,0
2023-01-11T03:43:40.519Z,0
2023-01-11T03:45:24.031Z,0
2023-01-11T03:47:07.745Z,0
2023-01-11T03:48:51.447Z,1
2023-01-11T03:50:35.145Z,0
2023-01-11T03:52:18.850Z,0
2023-01-11T03:54:02.564Z,0
2023-01-11T03:55:46.245Z,1
2023-01-11T03:57:29.945Z,1
2023-01-11T03:59:13.656Z,0
2023-01-11T04:00:57.378Z,0
2023-01-11T04:02:41.060Z,0
2023-01-11T04:04:24.750Z,0
2023-01-11T04:06:08.462Z,0
2023-01-11T04:07:52.162Z,0
2023-01-11T04:09:35.872Z,1
2023-01-11T04:11:19.563Z,0
2023-01-11T04:13:03.274Z,0
2023-01-11T04:14:46.965Z,0
2023-01-11T04:16:30.671Z,0
2023-01-11T04:18:14.376Z,0
2023-01-11T04:19:58.080Z,0
2023-01-11T04:21:41.789Z,0
2023-01-11T04:23:25.484Z,0
2023-01-11T04:25:09.181Z,0
2023-01-11T04:26:52.882Z,0
2023-01-11T04:28:36.587Z,0
2023-01-11T04:30:20.286Z,1
2023-01-11T04:32:03.999Z,0
2023-01-11T04:33:47.710Z,1
2023-01-11T04:35:31.403Z,0
2023-01-11T04:37:15.120Z,0
2023-01-11T04:38:58.821Z,0
2023-01-11T04:40:42.524Z,0
2023-01-11T04:42:26.209Z,0
2023-01-11T04:44:09.936Z,0
2023-01-11T04:45:53.621Z,0
2023-01-11T04:47:37.382Z,0
2023-01-11T04:49:21.053Z,0
2023-01-11T04:51:04.734Z,1
2023-01-11T04:52:48.450Z,0
2023-01-11T04:54:32.151Z,1
2023-01-11T04:56:15.846Z,0
2023-01-11T04:57:59.551Z,0
2023-01-11T04:59:43.255Z,0
2023-01-11T05:01:26.951Z,0
2023-01-11T05:03:10.663Z,1
2023-01-11T05:04:54.361Z,0
2023-01-11T05:06:38.068Z,0
2023-01-11T05:08:21.775Z,0
2023-01-11T05:10:05.489Z,1
2023-01-11T05:11:49.178Z,0
2023-01-11T05:13:32.885Z,0
2023-01-11T05:15:16.588Z,0
2023-01-11T05:17:00.307Z,0
2023-01-11T05:18:43.981Z,1
2023-01-11T05:20:27.689Z,0
2023-01-11T05:22:11.458Z,1
2023-01-11T05:23:55.113Z,1
2023-01-11T05:25:38.824Z,0
2023-01-11T05:27:22.517Z,0
2023-01-11T05:29:06.212Z,1
2023-01-11T05:30:49.917Z,0
2023-01-11T05:32:33.619Z,0
2023-01-11T05:34:17.314Z,0
2023-01-11T05:36:01.027Z,0
2023-01-11T05:37:44.731Z,0
2023-01-11T05:39:28.456Z,0
2023-01-11T05:41:12.131Z,0
2023-01-11T05:42:55.875Z,0
2023-01-11T05:44:39.540Z,0
2023-01-11T05:46:23.235Z,0
2023-01-11T05:48:06.943Z,1
2023-01-11T05:49:50.658Z,0
2023-01-11T05:51:34.357Z,0
2023-01-11T05:53:18.063Z,0
2023-01-11T05:55:01.754Z,0
2023-01-11T05:56:45.472Z,0
2023-01-11T05:58:29.203Z,1
2023-01-11T06:00:12.924Z,0
2023-01-11T06:01:56.583Z,0
2023-01-11T06:03:40.271Z,0
2023-01-11T06:05:23.962Z,0
2023-01-11T06:07:07.675Z,0
2023-01-11T06:08:51.415Z,0
2023-01-11T06:10:35.088Z,0
2023-01-11T06:12:18.796Z,0
2023-01-11T06:14:02.526Z,1
2023-01-11T06:15:46.186Z,0
2023-01-11T06:17:29.890Z,1
2023-01-11T06:19:13.591Z,1
2023-01-11T06:20:57.299Z,1
2023-01-11T06:22:41.013Z,0
2023-01-11T06:24:24.696Z,0
2023-01-11T06:26:08.408Z,0
2023-01-11T06:27:52.133Z,0
2023-01-11T06:29:35.814Z,66
2023-01-11T06:31:19.509Z,0
2023-01-11T06:33:03.215Z,0
2023-01-11T06:34:46.906Z,0
2023-01-11T06:36:30.621Z,0
2023-01-11T06:38:14.359Z,1
2023-01-11T06:39:58.020Z,1
2023-01-11T06:41:41.727Z,2
2023-01-11T06:43:25.433Z,2
2023-01-11T06:45:09.145Z,2
2023-01-11T06:46:52.868Z,2
2023-01-11T06:48:36.621Z,2
2023-01-11T06:50:20.247Z,4
2023-01-11T06:52:03.971Z,4
2023-01-11T06:53:47.696Z,7
2023-01-11T06:55:31.330Z,79
2023-01-11T06:57:15.085Z,89
2023-01-11T06:58:58.797Z,95
2023-01-11T07:00:42.459Z,774
2023-01-11T07:02:26.163Z,775
2023-01-11T07:04:09.849Z,776
2023-01-11T07:05:53.560Z,774
2023-01-11T07:07:37.271Z,774
2023-01-11T07:09:21.009Z,775
2023-01-11T07:11:04.683Z,775
2023-01-11T07:12:48.367Z,775
2023-01-11T07:14:32.093Z,774
2023-01-11T07:16:15.774Z,775
2023-01-11T07:17:59.500Z,774
2023-01-11T07:19:43.158Z,775
2023-01-11T07:21:26.876Z,775
2023-01-11T07:23:10.557Z,775
2023-01-11T07:24:54.264Z,775
2023-01-11T07:26:37.972Z,775
2023-01-11T07:28:21.679Z,775
2023-01-11T07:30:05.368Z,775
2023-01-11T07:31:49.138Z,775
2023-01-11T07:38:43.882Z,775
2023-01-11T07:40:27.631Z,776
2023-01-11T07:42:11.348Z,774
2023-01-11T07:43:54.966Z,774
2023-01-11T07:45:38.748Z,775
2023-01-11T07:47:22.381Z,775
2023-01-11T07:49:06.249Z,774
2023-01-11T07:50:49.790Z,775
2023-01-11T07:52:33.563Z,776
2023-01-11T07:54:17.204Z,774
2023-01-11T07:56:00.883Z,774
2023-01-11T07:57:44.583Z,775
2023-01-11T07:59:28.436Z,775
2023-01-11T08:01:12.009Z,775
2023-01-11T08:02:55.705Z,775
2023-01-11T08:04:39.393Z,775
2023-01-11T08:06:23.096Z,775
2023-01-11T08:08:06.932Z,775
2023-01-11T08:09:50.569Z,774
2023-01-11T08:11:34.207Z,775
2023-01-11T08:13:17.934Z,774
2023-01-11T08:15:01.661Z,776
2023-01-11T08:16:45.333Z,775
2023-01-11T08:18:29.034Z,775
2023-01-11T08:20:12.740Z,775
2023-01-11T08:21:56.505Z,769
2023-01-11T08:23:40.154Z,761
2023-01-11T08:25:23.846Z,774
2023-01-11T08:27:07.554Z,774
2023-01-11T08:28:51.296Z,696
2023-01-11T08:30:35.023Z,645
2023-01-11T08:32:18.672Z,685
2023-01-11T08:34:02.381Z,764
2023-01-11T08:35:46.152Z,775
2023-01-11T08:37:29.772Z,776
2023-01-11T08:39:13.578Z,776
2023-01-11T08:40:57.170Z,775
2023-01-11T08:42:40.889Z,775
2023-01-11T08:44:24.580Z,775
2023-01-11T08:46:08.280Z,775
2023-01-11T08:47:51.984Z,775
2023-01-11T08:49:35.796Z,775
2023-01-11T08:51:19.408Z,775
2023-01-11T08:53:03.089Z,775
2023-01-11T08:54:46.877Z,776
2023-01-11T08:56:30.494Z,775
2023-01-11T08:58:14.310Z,775
2023-01-11T08:59:58.024Z,775
2023-01-11T09:01:41.612Z,775
2023-01-11T09:03:25.327Z,775
2023-01-11T09:05:09.008Z,775
2023-01-11T09:06:52.728Z,775
2023-01-11T09:08:36.407Z,775
2023-01-11T09:10:20.143Z,775
2023-01-11T09:12:03.907Z,775
2023-01-11T09:13:47.500Z,757
2023-01-11T09:15:31.259Z,668
2023-01-11T09:17:14.928Z,568
2023-01-11T09:18:58.733Z,541
2023-01-11T09:20:42.317Z,523
2023-01-11T09:22:26.089Z,500
2023-01-11T09:24:09.711Z,519
2023-01-11T09:25:53.425Z,466
2023-01-11T09:27:37.174Z,437
2023-01-11T09:29:20.819Z,403
2023-01-11T09:31:04.516Z,381
2023-01-11T09:32:48.239Z,404
2023-01-11T09:34:31.927Z,434
2023-01-11T09:36:15.623Z,470
2023-01-11T09:37:59.341Z,492
2023-01-11T09:39:43.032Z,501
2023-01-11T09:41:26.771Z,470
2023-01-11T09:43:10.476Z,427
2023-01-11T09:44:54.160Z,394
2023-01-11T09:46:37.840Z,364
2023-01-11T09:48:21.539Z,357
2023-01-11T09:50:05.324Z,380
2023-01-11T09:51:48.936Z,396
2023-01-11T09:53:32.706Z,398
2023-01-11T09:55:16.353Z,403
2023-01-11T09:57:00.268Z,378
2023-01-11T09:58:43.782Z,351
2023-01-11T10:00:27.463Z,345
2023-01-11T10:02:11.149Z,368
2023-01-11T10:03:54.938Z,412
2023-01-11T10:05:38.551Z,434
2023-01-11T10:07:22.322Z,441
2023-01-11T10:09:05.955Z,449
2023-01-11T10:18:20.512Z,446
2023-01-11T10:18:21.535Z,415
2023-01-11T10:18:21.903Z,434
2023-01-11T10:18:21.944Z,401
2023-01-11T10:18:21.956Z,388
2023-01-11T10:19:28.165Z,402
2023-01-11T10:21:11.868Z,402
2023-01-11T10:22:55.561Z,437
2023-01-11T10:24:39.253Z,441
2023-01-11T10:26:23.019Z,423
2023-01-11T10:28:06.680Z,406
2023-01-11T10:29:50.450Z,394
2023-01-11T10:31:34.116Z,374
2023-01-11T10:33:17.767Z,352
2023-01-11T10:35:01.610Z,328
2023-01-11T10:36:45.167Z,309
2023-01-11T10:38:28.889Z,305
2023-01-11T10:40:12.700Z,309
2023-01-11T10:41:56.314Z,318
2023-01-11T10:43:40.114Z,311
2023-01-11T10:45:23.898Z,292
2023-01-11T10:47:07.568Z,296
2023-01-11T10:48:51.268Z,307
2023-01-11T10:50:34.898Z,323
2023-01-11T10:52:18.491Z,339
2023-01-11T10:54:02.393Z,354
2023-01-11T10:55:46.107Z,373
2023-01-11T10:57:29.774Z,378
2023-01-11T10:59:13.447Z,373
2023-01-11T11:00:57.162Z,358
2023-01-11T11:02:40.887Z,360
2023-01-11T11:04:24.545Z,376
2023-01-11T11:06:08.444Z,402
2023-01-11T11:07:51.961Z,414
2023-01-11T11:09:35.649Z,417
2023-01-11T11:11:19.218Z,426
2023-01-11T11:13:03.154Z,445
2023-01-11T11:14:46.730Z,484
2023-01-11T11:16:30.479Z,513
2023-01-11T11:18:14.333Z,533
2023-01-11T11:21:41.631Z,579
2023-01-11T11:23:25.321Z,593
2023-01-11T11:25:08.996Z,553
2023-01-11T11:26:52.727Z,521
2023-01-11T11:28:36.410Z,512
2023-01-11T11:30:19.936Z,482
2023-01-11T11:32:03.741Z,491
2023-01-11T11:33:47.520Z,564
2023-01-11T11:35:31.225Z,590
2023-01-11T11:37:14.927Z,571
2023-01-11T11:38:58.593Z,570
2023-01-11T11:40:42.222Z,582
2023-01-11T11:42:25.848Z,540
2023-01-11T11:44:09.694Z,493
2023-01-11T11:45:53.400Z,497
2023-01-11T11:47:37.092Z,540
2023-01-11T11:49:20.906Z,535
2023-01-11T11:51:04.527Z,515
2023-01-11T11:52:48.102Z,517
2023-01-11T11:54:31.764Z,530
2023-01-11T11:56:15.468Z,627
2023-01-11T11:57:59.192Z,622
2023-01-11T11:59:42.882Z,639
2023-01-11T12:01:26.581Z,608
2023-01-11T12:03:10.279Z,593
2023-01-11T12:04:53.995Z,612
2023-01-11T12:06:37.695Z,590
2023-01-11T12:08:21.387Z,649
2023-01-11T12:10:05.075Z,591
2023-01-11T12:11:48.790Z,629
2023-01-11T12:13:32.491Z,625
2023-01-11T12:15:16.201Z,573
2023-01-11T12:16:59.896Z,538
2023-01-11T12:18:43.622Z,552
2023-01-11T12:20:27.298Z,570
2023-01-11T12:22:10.995Z,582
2023-01-11T12:23:54.694Z,643
2023-01-11T12:25:38.386Z,687
2023-01-11T12:27:22.169Z,680
2023-01-11T12:29:05.820Z,649
2023-01-11T12:30:49.494Z,664
2023-01-11T12:32:33.196Z,674
2023-01-11T12:34:16.903Z,671
2023-01-11T12:36:00.623Z,661
2023-01-11T12:37:44.304Z,582
2023-01-11T12:39:28.003Z,561
2023-01-11T12:41:11.721Z,542
2023-01-11T12:42:55.429Z,540
2023-01-11T12:44:39.101Z,536
2023-01-11T12:46:22.821Z,539
2023-01-11T12:48:06.522Z,560
2023-01-11T12:49:50.214Z,560
2023-01-11T12:51:33.907Z,569
2023-01-11T12:53:17.627Z,570
2023-01-11T12:55:01.312Z,515
2023-01-11T12:56:45.024Z,489
2023-01-11T12:58:28.736Z,469
2023-01-11T13:00:12.411Z,456
2023-01-11T13:01:56.142Z,431
2023-01-11T13:03:39.837Z,444
2023-01-11T13:05:23.517Z,443
2023-01-11T13:07:07.239Z,434
2023-01-11T13:08:50.935Z,410
2023-01-11T13:10:34.637Z,401
2023-01-11T13:12:18.333Z,400
2023-01-11T13:14:02.039Z,398
2023-01-11T13:15:45.737Z,401
2023-01-11T13:17:29.438Z,426
2023-01-11T13:19:13.144Z,474
2023-01-11T13:20:56.853Z,543
2023-01-11T13:22:40.539Z,580
2023-01-11T13:24:24.244Z,560
2023-01-11T13:26:07.937Z,509
2023-01-11T13:27:51.654Z,480
2023-01-11T13:29:35.354Z,504
2023-01-11T13:31:19.031Z,529
2023-01-11T13:33:02.741Z,523
2023-01-11T13:34:46.458Z,533
2023-01-11T13:36:30.166Z,571
2023-01-11T13:38:13.849Z,574
2023-01-11T13:39:57.561Z,570
2023-01-11T13:41:41.261Z,577
2023-01-11T13:43:24.975Z,561
2023-01-11T13:45:08.670Z,569
2023-01-11T13:46:52.376Z,614
2023-01-11T13:48:36.250Z,638
2023-01-11T13:50:19.769Z,594
2023-01-11T13:52:03.467Z,500
2023-01-11T13:53:47.185Z,372
2023-01-11T13:55:30.884Z,383
2023-01-11T13:57:14.581Z,378
2023-01-11T13:58:58.278Z,329
2023-01-11T14:00:41.988Z,334
2023-01-11T14:02:25.702Z,352
2023-01-11T14:04:09.377Z,297
2023-01-11T14:05:53.073Z,266
2023-01-11T14:07:36.778Z,252
2023-01-11T14:09:20.497Z,267
2023-01-11T14:11:03.862Z,260
2023-01-11T14:12:47.584Z,277
2023-01-11T14:14:31.284Z,259
2023-01-11T14:16:14.992Z,252
2023-01-11T14:17:58.672Z,295
2023-01-11T14:19:42.390Z,330
2023-01-11T14:21:26.090Z,331
2023-01-11T14:23:09.798Z,341
2023-01-11T14:24:53.487Z,369
2023-01-11T14:26:37.183Z,403
2023-01-11T14:28:20.890Z,255
2023-01-11T14:30:04.595Z,238
2023-01-11T14:31:48.293Z,248
2023-01-11T14:33:32.053Z,166
2023-01-11T14:35:15.724Z,124
2023-01-11T14:36:59.432Z,120
2023-01-11T14:38:43.121Z,128
2023-01-11T14:40:26.813Z,81
2023-01-11T14:42:10.515Z,150
2023-01-11T14:43:54.234Z,233
2023-01-11T14:45:37.927Z,249
2023-01-11T14:47:21.623Z,213
2023-01-11T14:49:05.334Z,234
2023-01-11T14:50:49.026Z,265
2023-01-11T14:52:32.739Z,330
2023-01-11T14:54:16.456Z,775
2023-01-11T14:56:00.150Z,776
2023-01-11T14:57:43.840Z,775
2023-01-11T14:59:27.553Z,776
2023-01-11T15:01:11.233Z,775
2023-01-11T15:02:54.966Z,285
2023-01-11T15:04:38.655Z,229
2023-01-11T15:06:22.344Z,195
2023-01-11T15:08:06.062Z,164
2023-01-11T15:09:49.756Z,148
2023-01-11T15:11:33.442Z,147
2023-01-11T15:13:17.151Z,143
2023-01-11T15:15:00.854Z,140
2023-01-11T15:16:44.581Z,147
2023-01-11T15:18:28.256Z,156
2023-01-11T15:20:11.965Z,148
2023-01-11T15:21:55.663Z,126
2023-01-11T15:23:39.366Z,103
2023-01-11T15:25:23.057Z,93
2023-01-11T15:27:06.753Z,82
2023-01-11T15:28:50.469Z,67
2023-01-11T15:30:34.185Z,52
2023-01-11T15:32:38.110Z,43
2023-01-11T15:34:01.573Z,40
2023-01-11T15:35:45.285Z,37
2023-01-11T15:37:28.995Z,33
2023-01-11T15:39:12.675Z,27
2023-01-11T15:40:56.387Z,23
2023-01-11T15:42:40.077Z,21
2023-01-11T15:44:23.796Z,18
2023-01-11T15:46:07.489Z,14
2023-01-11T15:47:51.209Z,12
2023-01-11T15:49:34.914Z,10
2023-01-11T15:51:18.609Z,26
2023-01-11T15:53:02.302Z,27
2023-01-11T15:54:45.987Z,26
2023-01-11T15:56:29.728Z,24
2023-01-11T15:58:13.416Z,24
2023-01-11T15:59:57.118Z,21
2023-01-11T16:01:40.816Z,22
2023-01-11T16:03:24.578Z,21
2023-01-11T16:05:08.217Z,20
2023-01-11T16:06:51.928Z,21
2023-01-11T16:08:35.629Z,19
2023-01-11T16:10:19.323Z,20
2023-01-11T16:12:03.028Z,19
2023-01-11T16:13:46.736Z,19
2023-01-11T16:15:30.445Z,18
2023-01-11T16:17:14.141Z,15
2023-01-11T16:18:57.838Z,19
2023-01-11T16:20:41.546Z,19
2023-01-11T16:22:25.248Z,19
2023-01-11T16:24:09.018Z,19
2023-01-11T16:25:52.643Z,18
2023-01-11T16:27:36.339Z,19
2023-01-11T16:29:20.071Z,18
2023-01-11T16:31:03.783Z,19
2023-01-11T16:32:47.448Z,19
2023-01-11T16:34:31.150Z,20
2023-01-11T16:36:14.861Z,776
2023-01-11T16:37:58.573Z,775
2023-01-11T16:39:42.262Z,775
2023-01-11T16:41:25.976Z,775
2023-01-11T16:43:09.671Z,775
2023-01-11T16:44:53.385Z,775
2023-01-11T16:46:37.082Z,775
2023-01-11T16:48:20.793Z,775
2023-01-11T16:50:04.490Z,776
2023-01-11T16:51:48.183Z,775
2023-01-11T16:53:31.904Z,775
2023-01-11T16:55:15.601Z,775
2023-01-11T16:56:59.307Z,775
2023-01-11T16:58:43.005Z,775
2023-01-11T17:00:26.717Z,776
2023-01-11T17:02:10.427Z,775
2023-01-11T17:03:54.124Z,776
2023-01-11T17:05:37.812Z,775
2023-01-11T17:07:21.522Z,775
2023-01-11T17:09:05.214Z,776
2023-01-11T17:10:48.922Z,775
2023-01-11T17:12:32.621Z,775
2023-01-11T17:14:16.313Z,775
2023-01-11T17:16:00.056Z,776
2023-01-11T17:17:43.788Z,775
2023-01-11T17:19:27.435Z,776
2023-01-11T17:21:11.126Z,775
2023-01-11T17:22:54.823Z,775
2023-01-11T17:24:38.545Z,775
2023-01-11T17:26:22.229Z,775
2023-01-11T17:29:49.687Z,775
2023-01-11T17:31:33.473Z,775
2023-01-11T17:33:17.050Z,776
2023-01-11T17:35:00.724Z,776
2023-01-11T17:36:44.442Z,776
2023-01-11T17:38:28.156Z,776
2023-01-11T17:40:11.924Z,775
2023-01-11T17:41:55.580Z,775
2023-01-11T17:43:39.233Z,775
2023-01-11T17:45:22.972Z,775
2023-01-11T17:47:06.645Z,773
2023-01-11T17:48:50.354Z,776
2023-01-11T17:50:34.037Z,775
2023-01-11T17:52:17.750Z,776
2023-01-11T17:54:01.451Z,775
2023-01-11T17:55:45.157Z,775
2023-01-11T17:57:28.863Z,775
2023-01-11T17:59:12.556Z,775
2023-01-11T18:00:56.263Z,776
2023-01-11T18:02:39.979Z,775
2023-01-11T18:04:23.673Z,776
2023-01-11T18:06:07.387Z,776
2023-01-11T18:07:51.079Z,776
2023-01-11T18:09:34.767Z,776
2023-01-11T18:11:18.469Z,776
2023-01-11T18:13:02.186Z,775
2023-01-11T18:14:45.878Z,776
2023-01-11T18:16:29.575Z,775
2023-01-11T18:18:13.281Z,776
2023-01-11T18:19:56.983Z,775
2023-01-11T18:21:40.688Z,776
2023-01-11T18:23:24.383Z,776
2023-01-11T18:25:08.076Z,775
2023-01-11T18:26:51.790Z,776
2023-01-11T18:28:35.471Z,776
2023-01-11T18:30:19.193Z,776
2023-01-11T18:32:02.896Z,775
2023-01-11T18:33:46.614Z,157
2023-01-11T18:35:30.275Z,380
2023-01-11T18:37:13.990Z,389
2023-01-11T18:38:57.703Z,240
2023-01-11T18:40:41.427Z,429
2023-01-11T18:42:25.155Z,342
2023-01-11T18:44:08.800Z,584
2023-01-11T18:45:52.506Z,622
2023-01-11T18:47:36.227Z,643
2023-01-11T18:49:19.901Z,574
2023-01-11T18:51:03.647Z,652
2023-01-11T18:52:47.315Z,766
2023-01-11T18:54:31.016Z,524
2023-01-11T18:56:14.709Z,774
2023-01-11T18:57:58.429Z,775
2023-01-11T18:59:42.137Z,776
2023-01-11T19:01:25.825Z,3
2023-01-11T19:03:09.580Z,3
2023-01-11T19:04:53.234Z,3
2023-01-11T19:06:36.936Z,3
2023-01-11T19:08:20.629Z,3
2023-01-11T19:10:04.341Z,3
2023-01-11T19:11:48.124Z,3
2023-01-11T19:13:31.742Z,3
2023-01-11T19:15:15.436Z,3
2023-01-11T19:16:59.142Z,4
2023-01-11T19:18:42.847Z,2
2023-01-11T19:20:26.588Z,3
2023-01-11T19:22:10.261Z,2
2023-01-11T19:23:53.961Z,3
2023-01-11T19:25:37.652Z,3
2023-01-11T19:27:21.347Z,3
2023-01-11T19:29:05.066Z,3
2023-01-11T19:30:48.808Z,3
2023-01-11T19:32:32.488Z,3
2023-01-11T19:34:16.161Z,3
2023-01-11T19:35:59.874Z,3
2023-01-11T19:37:43.620Z,3
2023-01-11T19:39:27.306Z,3
2023-01-11T19:41:10.970Z,3
2023-01-11T19:42:54.669Z,3
2023-01-11T19:44:38.385Z,3
2023-01-11T19:46:22.094Z,3
2023-01-11T19:48:05.781Z,2
2023-01-11T19:49:49.491Z,3
2023-01-11T19:51:33.275Z,2
2023-01-11T19:53:16.894Z,2
2023-01-11T19:55:00.654Z,3
2023-01-11T19:56:44.299Z,3
2023-01-11T19:58:27.991Z,2
2023-01-11T20:00:11.678Z,3
2023-01-11T20:01:55.390Z,3
2023-01-11T20:03:39.085Z,3
2023-01-11T20:05:22.791Z,71
2023-01-11T20:07:06.501Z,70
2023-01-11T20:08:50.197Z,71
2023-01-11T20:10:33.913Z,73
2023-01-11T20:12:17.606Z,3
2023-01-11T20:15:45.017Z,3
2023-01-11T20:17:28.725Z,3
2023-01-11T20:19:12.415Z,3
2023-01-11T20:20:56.100Z,3
2023-01-11T20:22:39.827Z,4
2023-01-11T20:24:23.527Z,3
2023-01-11T20:26:07.243Z,3
2023-01-11T20:27:50.939Z,3
2023-01-11T20:29:34.615Z,2
2023-01-11T20:31:18.328Z,3
2023-01-11T20:33:02.034Z,3
2023-01-11T20:34:45.731Z,3
2023-01-11T20:36:29.574Z,3
2023-01-11T20:38:13.132Z,3
2023-01-11T20:39:56.847Z,4
2023-01-11T20:41:40.539Z,2
2023-01-11T20:43:24.249Z,3
2023-01-11T20:45:07.952Z,3
2023-01-11T20:46:51.647Z,3
2023-01-11T20:48:35.345Z,2
2023-01-11T20:50:19.045Z,2
2023-01-11T20:52:02.797Z,3
2023-01-11T20:53:46.450Z,3
2023-01-11T20:55:30.140Z,3
2023-01-11T20:57:13.850Z,3
2023-01-11T20:58:57.571Z,3
2023-01-11T21:00:41.268Z,3
2023-01-11T21:02:24.964Z,3
2023-01-11T21:04:08.661Z,3
2023-01-11T21:05:52.368Z,3
2023-01-11T21:07:36.055Z,3
2023-01-11T21:09:19.801Z,3
2023-01-11T21:11:03.465Z,3
2023-01-11T21:12:48.372Z,2
2023-01-11T21:14:30.861Z,3
2023-01-11T21:16:14.552Z,3
2023-01-11T21:17:58.281Z,3
2023-01-11T21:19:41.983Z,3
2023-01-11T21:21:25.707Z,3
2023-01-11T21:23:09.371Z,4
2023-01-11T21:24:53.107Z,3
2023-01-11T21:26:36.854Z,3
2023-01-11T21:28:20.588Z,3
2023-01-11T21:30:04.246Z,3
2023-01-11T21:31:47.923Z,4
2023-01-11T21:33:31.576Z,3
2023-01-11T21:35:15.301Z,3
2023-01-11T21:36:58.980Z,3
2023-01-11T21:38:42.683Z,3
2023-01-11T21:40:26.384Z,3
2023-01-11T21:42:10.080Z,3
2023-01-11T21:43:53.777Z,3
2023-01-11T21:45:37.484Z,74
2023-01-11T21:47:21.198Z,3
2023-01-11T21:49:04.908Z,3
2023-01-11T21:50:48.615Z,2
2023-01-11T21:52:32.318Z,3
2023-01-11T21:54:15.999Z,3
2023-01-11T21:55:59.716Z,3
2023-01-11T21:57:43.408Z,3
2023-01-11T21:59:27.126Z,3
2023-01-11T22:01:10.805Z,3
2023-01-11T22:02:54.512Z,3
2023-01-11T22:04:38.278Z,3
2023-01-11T22:06:21.916Z,3
2023-01-11T22:08:05.601Z,3
2023-01-11T22:09:49.311Z,3
2023-01-11T22:11:33.019Z,3
2023-01-11T22:13:16.729Z,3
2023-01-11T22:15:00.401Z,3
2023-01-11T22:16:44.142Z,2
2023-01-11T22:18:27.822Z,5
2023-01-11T22:20:11.531Z,3
2023-01-11T22:21:55.234Z,3
2023-01-11T22:23:38.914Z,3
2023-01-11T22:25:22.666Z,2
2023-01-11T22:27:06.325Z,3
2023-01-11T22:28:50.076Z,3
2023-01-11T22:30:33.734Z,3
2023-01-11T22:32:17.432Z,3
2023-01-11T22:34:01.137Z,3
2023-01-11T22:35:44.846Z,2
2023-01-11T22:37:28.554Z,3
2023-01-11T22:39:12.231Z,3
2023-01-11T22:40:55.945Z,3
2023-01-11T22:42:39.626Z,2
2023-01-11T22:44:23.386Z,3
2023-01-11T22:46:07.039Z,3
2023-01-11T22:47:50.759Z,2
2023-01-11T22:49:34.546Z,3
2023-01-11T22:51:18.160Z,3
2023-01-11T22:53:01.888Z,2
2023-01-11T22:54:45.547Z,4
2023-01-11T22:56:29.268Z,3
2023-01-11T22:58:12.967Z,3
2023-01-11T22:59:56.677Z,3
2023-01-11T23:01:40.401Z,3
2023-01-11T23:03:24.068Z,2
2023-01-11T23:05:07.774Z,3
2023-01-11T23:06:51.476Z,3
2023-01-11T23:08:35.167Z,2
2023-01-11T23:10:18.892Z,3
2023-01-11T23:12:02.589Z,2
2023-01-11T23:13:46.273Z,3
2023-01-11T23:15:29.985Z,3
2023-01-11T23:17:13.670Z,3
2023-01-11T23:18:57.383Z,73
2023-01-11T23:20:41.101Z,73
2023-01-11T23:22:24.775Z,2
2023-01-11T23:24:08.468Z,2
2023-01-11T23:25:52.206Z,2
2023-01-11T23:27:35.899Z,2
2023-01-11T23:29:19.588Z,2
2023-01-11T23:31:03.305Z,2
2023-01-11T23:32:47.006Z,2
2023-01-11T23:34:30.688Z,4
2023-01-11T23:36:14.401Z,2
2023-01-11T23:37:58.117Z,2
2023-01-11T23:39:41.830Z,2
2023-01-11T23:41:25.509Z,1
2023-01-11T23:43:09.218Z,0
2023-01-11T23:44:52.925Z,0
2023-01-11T23:46:36.625Z,1
2023-01-11T23:48:20.315Z,1
2023-01-11T23:50:04.011Z,1
2023-01-11T23:51:47.723Z,1
2023-01-11T23:53:31.428Z,1
2023-01-11T23:55:15.116Z,0
2023-01-11T23:56:58.813Z,1
2023-01-11T23:58:42.529Z,1
